EIKNEISG

Guest
Details From EIKN - Ireland West Airport Knock
To EISG - Sligo
Flight Number -
Tags generated
Created
Modified
Stats Distance 24 nm / 44 km
Max Altitude 0 ft / 0 m
Waypoints 3
Social Downloads 0
Likes 0
Share VATSIM

Download

Looking for another format? Having issues loading an existing format? Contact us
Advertisement - Login to hide

Notes

Basic altitude profile: - Ascent Rate: 2500ft/min - Ascent Speed: 250kts - Cruise Altitude: 35000ft - Cruise Speed: 420kts - Descent Rate: 1500ft/min - Descent Speed: 250kts Options: - Use NATs: yes - Use PACOTS: yes - Use low airways: yes - Use high airways: yes

Route

EIKN DONOX EISG

ID Type Via Altitude Latitude Longitude Leg Dist Tot Dist Heading (true) Name
O EIKN APT - 0 ft / 0 m 53.91031˚ -8.81847˚ - 0 nm - Ireland West Airport Knock
DONOX FIX - 0 ft / 0 m 53.91320˚ -8.81843˚ 0 nm 0 nm 0° / 0° -
O EISG APT - 0 ft / 0 m 54.28021˚ -8.59920˚ 23 nm 23 nm 19° / 19° Sligo

Altitude Profile

Advertisement - Login to hide

EIKN

Details ICAO EIKN (NOC)
Name Ireland West Airport Knock
Region Ireland
Timezone Europe/Dublin (UTC+1.0)
Stats Elevation 665 ft / 203 m (AMSL)
Location 53.910306° -8.818474°
Runways 1
Magnetic Variation 4.088° W

METAR

EIKN 220830Z 01010KT 9999 FEW024 SCT150 BKN300 09/04 Q1023 NOSIG

Decode

TAF

TAF EIKN 220500Z 2206/2306 36010KT 9999 FEW025 BECMG 2210/2212 03005KT TEMPO 2218/2301 35010KT PROB40 2303/2306 0500 FG BKN001 BECMG 2304/2306 09010KT

Decode

Departure Runways

ID Width Length Bearing (true) Bearing (mag) Surface Threshold Offset Overrun Length
09 148 ft / 45 m 7,513 ft / 2,290 m 78.74° 82.83° Asphalt 482 ft / 147 m 0 ft / 0 m
27 148 ft / 45 m 7,513 ft / 2,290 m 258.76° 262.85° Asphalt 0 ft / 0 m 0 ft / 0 m

EISG

Details ICAO EISG (SXL)
Name Sligo
Region Ireland
Timezone Europe/Dublin (UTC+1.0)
Stats Elevation 11 ft / 3 m (AMSL)
Location 54.280211° -8.599196°
Runways 1
Magnetic Variation 4.075° W

METAR

EISG 220830Z 02009KT 9999 FEW020 SCT300 10/05 Q1023

Decode

TAF

Not found

Destination Runways

ID Width Length Bearing (true) Bearing (mag) Surface Threshold Offset Overrun Length
11 98 ft / 30 m 3,792 ft / 1,156 m 100.37° 104.45° Asphalt 125 ft / 38 m 0 ft / 0 m
29 98 ft / 30 m 3,792 ft / 1,156 m 280.39° 284.47° Asphalt 131 ft / 40 m 0 ft / 0 m